sensor_id;sensor_type;location;lat;lon;timestamp;temperature;humidity
45807;DHT22;31507;51.494;7.518;2023-05-10T00:02:03;12.50;99.90
45807;DHT22;31507;51.494;7.518;2023-05-10T00:04:28;12.40;99.90
45807;DHT22;31507;51.494;7.518;2023-05-10T00:06:54;12.40;99.90
45807;DHT22;31507;51.494;7.518;2023-05-10T00:09:20;12.40;99.90
45807;DHT22;31507;51.494;7.518;2023-05-10T00:11:45;12.40;99.90
45807;DHT22;31507;51.494;7.518;2023-05-10T00:14:11;12.40;99.90
45807;DHT22;31507;51.494;7.518;2023-05-10T00:16:37;12.40;99.90
45807;DHT22;31507;51.494;7.518;2023-05-10T00:19:03;12.40;99.90
45807;DHT22;31507;51.494;7.518;2023-05-10T00:21:28;12.40;99.90
45807;DHT22;31507;51.494;7.518;2023-05-10T00:23:54;12.40;99.90
45807;DHT22;31507;51.494;7.518;2023-05-10T00:26:20;12.40;99.90
45807;DHT22;31507;51.494;7.518;2023-05-10T00:28:46;12.40;99.90
45807;DHT22;31507;51.494;7.518;2023-05-10T00:31:11;12.40;99.90
45807;DHT22;31507;51.494;7.518;2023-05-10T00:33:37;12.40;99.90
45807;DHT22;31507;51.494;7.518;2023-05-10T00:36:03;12.40;99.90
45807;DHT22;31507;51.494;7.518;2023-05-10T00:38:29;12.40;99.90
45807;DHT22;31507;51.494;7.518;2023-05-10T00:40:55;12.40;99.90
45807;DHT22;31507;51.494;7.518;2023-05-10T00:43:20;12.40;99.90
45807;DHT22;31507;51.494;7.518;2023-05-10T00:45:46;12.30;99.90
45807;DHT22;31507;51.494;7.518;2023-05-10T00:48:12;12.40;99.90
45807;DHT22;31507;51.494;7.518;2023-05-10T00:50:38;12.40;99.90
45807;DHT22;31507;51.494;7.518;2023-05-10T00:53:05;12.40;99.90
45807;DHT22;31507;51.494;7.518;2023-05-10T00:55:31;12.30;99.90
45807;DHT22;31507;51.494;7.518;2023-05-10T00:57:57;12.30;99.90
45807;DHT22;31507;51.494;7.518;2023-05-10T01:00:22;12.30;99.90
45807;DHT22;31507;51.494;7.518;2023-05-10T01:02:48;12.30;99.90
45807;DHT22;31507;51.494;7.518;2023-05-10T01:05:14;12.30;99.90
45807;DHT22;31507;51.494;7.518;2023-05-10T01:07:40;12.30;99.90
45807;DHT22;31507;51.494;7.518;2023-05-10T01:10:07;12.30;99.90
45807;DHT22;31507;51.494;7.518;2023-05-10T01:12:39;12.30;99.90
45807;DHT22;31507;51.494;7.518;2023-05-10T01:15:07;12.30;99.90
45807;DHT22;31507;51.494;7.518;2023-05-10T01:17:34;12.20;99.90
45807;DHT22;31507;51.494;7.518;2023-05-10T01:20:01;12.30;99.90
45807;DHT22;31507;51.494;7.518;2023-05-10T01:33:52;12.20;99.90
45807;DHT22;31507;51.494;7.518;2023-05-10T01:36:45;12.20;99.90
45807;DHT22;31507;51.494;7.518;2023-05-10T01:42:05;12.30;99.90
45807;DHT22;31507;51.494;7.518;2023-05-10T01:44:37;12.30;99.90
45807;DHT22;31507;51.494;7.518;2023-05-10T01:47:09;12.30;99.90
45807;DHT22;31507;51.494;7.518;2023-05-10T01:49:47;12.30;99.90
45807;DHT22;31507;51.494;7.518;2023-05-10T01:52:18;12.30;99.90
45807;DHT22;31507;51.494;7.518;2023-05-10T01:54:55;12.30;99.90
45807;DHT22;31507;51.494;7.518;2023-05-10T01:57:23;12.30;99.90
45807;DHT22;31507;51.494;7.518;2023-05-10T01:59:51;12.30;99.90
45807;DHT22;31507;51.494;7.518;2023-05-10T02:02:20;12.40;99.90
45807;DHT22;31507;51.494;7.518;2023-05-10T02:04:46;12.30;99.90
45807;DHT22;31507;51.494;7.518;2023-05-10T02:07:14;12.30;99.90
45807;DHT22;31507;51.494;7.518;2023-05-10T02:09:40;12.30;99.90
45807;DHT22;31507;51.494;7.518;2023-05-10T02:12:08;12.30;99.90
45807;DHT22;31507;51.494;7.518;2023-05-10T02:14:36;12.30;99.90
45807;DHT22;31507;51.494;7.518;2023-05-10T02:17:04;12.20;99.90
45807;DHT22;31507;51.494;7.518;2023-05-10T02:19:31;12.20;99.90
45807;DHT22;31507;51.494;7.518;2023-05-10T02:21:59;12.20;99.90
45807;DHT22;31507;51.494;7.518;2023-05-10T02:24:27;12.20;99.90
45807;DHT22;31507;51.494;7.518;2023-05-10T02:26:54;12.20;99.90
45807;DHT22;31507;51.494;7.518;2023-05-10T02:29:23;12.20;99.90
45807;DHT22;31507;51.494;7.518;2023-05-10T02:31:53;12.20;99.90
45807;DHT22;31507;51.494;7.518;2023-05-10T02:34:21;12.20;99.90
45807;DHT22;31507;51.494;7.518;2023-05-10T02:36:47;12.20;99.90
45807;DHT22;31507;51.494;7.518;2023-05-10T02:39:14;12.20;99.90
45807;DHT22;31507;51.494;7.518;2023-05-10T02:41:42;12.20;99.90
45807;DHT22;31507;51.494;7.518;2023-05-10T02:44:09;12.10;99.90
45807;DHT22;31507;51.494;7.518;2023-05-10T02:46:35;12.10;99.90
45807;DHT22;31507;51.494;7.518;2023-05-10T02:49:03;12.00;99.90
45807;DHT22;31507;51.494;7.518;2023-05-10T02:51:31;12.00;99.90
45807;DHT22;31507;51.494;7.518;2023-05-10T02:53:57;12.00;99.90
45807;DHT22;31507;51.494;7.518;2023-05-10T02:56:33;11.90;99.90
45807;DHT22;31507;51.494;7.518;2023-05-10T02:58:59;11.90;99.90
45807;DHT22;31507;51.494;7.518;2023-05-10T03:01:25;11.90;99.90
45807;DHT22;31507;51.494;7.518;2023-05-10T03:03:51;11.90;99.90
45807;DHT22;31507;51.494;7.518;2023-05-10T03:06:18;11.80;99.90
45807;DHT22;31507;51.494;7.518;2023-05-10T03:08:44;11.80;99.90
45807;DHT22;31507;51.494;7.518;2023-05-10T03:13:54;11.80;99.90
45807;DHT22;31507;51.494;7.518;2023-05-10T03:16:29;11.70;99.90
45807;DHT22;31507;51.494;7.518;2023-05-10T03:19:00;11.70;99.90
45807;DHT22;31507;51.494;7.518;2023-05-10T03:21:29;11.70;99.90
45807;DHT22;31507;51.494;7.518;2023-05-10T03:23:59;11.70;99.90
45807;DHT22;31507;51.494;7.518;2023-05-10T03:26:30;11.70;99.90
45807;DHT22;31507;51.494;7.518;2023-05-10T03:28:58;11.70;99.90
45807;DHT22;31507;51.494;7.518;2023-05-10T03:31:25;11.70;99.90
45807;DHT22;31507;51.494;7.518;2023-05-10T03:33:52;11.70;99.90
45807;DHT22;31507;51.494;7.518;2023-05-10T03:36:18;11.60;99.90
45807;DHT22;31507;51.494;7.518;2023-05-10T03:38:45;11.60;99.90
45807;DHT22;31507;51.494;7.518;2023-05-10T03:41:11;11.60;99.90
45807;DHT22;31507;51.494;7.518;2023-05-10T03:43:36;11.60;99.90
45807;DHT22;31507;51.494;7.518;2023-05-10T03:46:04;11.60;99.90
45807;DHT22;31507;51.494;7.518;2023-05-10T03:48:30;11.50;99.90
45807;DHT22;31507;51.494;7.518;2023-05-10T03:50:57;11.50;99.90
45807;DHT22;31507;51.494;7.518;2023-05-10T03:53:22;11.50;99.90
45807;DHT22;31507;51.494;7.518;2023-05-10T03:55:48;11.60;99.90
45807;DHT22;31507;51.494;7.518;2023-05-10T03:58:14;11.50;99.90
45807;DHT22;31507;51.494;7.518;2023-05-10T04:00:40;11.60;99.90
45807;DHT22;31507;51.494;7.518;2023-05-10T04:03:09;11.60;99.90
45807;DHT22;31507;51.494;7.518;2023-05-10T04:05:36;11.60;99.90
45807;DHT22;31507;51.494;7.518;2023-05-10T04:08:02;11.60;99.90
45807;DHT22;31507;51.494;7.518;2023-05-10T04:10:29;11.60;99.90
45807;DHT22;31507;51.494;7.518;2023-05-10T04:12:55;11.60;99.90
45807;DHT22;31507;51.494;7.518;2023-05-10T04:15:21;11.70;99.90
45807;DHT22;31507;51.494;7.518;2023-05-10T04:17:47;11.70;99.90
45807;DHT22;31507;51.494;7.518;2023-05-10T04:20:12;11.70;99.90
45807;DHT22;31507;51.494;7.518;2023-05-10T04:22:38;11.70;99.90
45807;DHT22;31507;51.494;7.518;2023-05-10T04:25:04;11.70;99.90
45807;DHT22;31507;51.494;7.518;2023-05-10T04:27:30;11.70;99.90
45807;DHT22;31507;51.494;7.518;2023-05-10T04:29:56;11.70;99.90
45807;DHT22;31507;51.494;7.518;2023-05-10T04:32:22;11.80;99.90
45807;DHT22;31507;51.494;7.518;2023-05-10T04:34:48;11.70;99.90
45807;DHT22;31507;51.494;7.518;2023-05-10T04:37:14;11.70;99.90
45807;DHT22;31507;51.494;7.518;2023-05-10T04:39:39;11.80;99.90
45807;DHT22;31507;51.494;7.518;2023-05-10T04:42:05;11.70;99.90
45807;DHT22;31507;51.494;7.518;2023-05-10T04:44:31;11.70;99.90
45807;DHT22;31507;51.494;7.518;2023-05-10T04:46:57;11.80;99.90
45807;DHT22;31507;51.494;7.518;2023-05-10T04:49:23;11.80;99.90
45807;DHT22;31507;51.494;7.518;2023-05-10T04:51:49;11.80;99.90
45807;DHT22;31507;51.494;7.518;2023-05-10T04:54:14;11.80;99.90
45807;DHT22;31507;51.494;7.518;2023-05-10T04:56:40;11.80;99.90
45807;DHT22;31507;51.494;7.518;2023-05-10T04:59:06;11.80;99.90
45807;DHT22;31507;51.494;7.518;2023-05-10T05:01:32;11.80;99.90
45807;DHT22;31507;51.494;7.518;2023-05-10T05:03:58;11.80;99.90
45807;DHT22;31507;51.494;7.518;2023-05-10T05:06:23;11.80;99.90
45807;DHT22;31507;51.494;7.518;2023-05-10T05:08:50;11.80;99.90
45807;DHT22;31507;51.494;7.518;2023-05-10T05:11:17;11.80;99.90
45807;DHT22;31507;51.494;7.518;2023-05-10T05:13:43;11.80;99.90
45807;DHT22;31507;51.494;7.518;2023-05-10T05:16:09;11.80;99.90
45807;DHT22;31507;51.494;7.518;2023-05-10T05:18:36;11.80;99.90
45807;DHT22;31507;51.494;7.518;2023-05-10T05:21:01;11.90;99.90
45807;DHT22;31507;51.494;7.518;2023-05-10T05:23:27;11.90;99.90
45807;DHT22;31507;51.494;7.518;2023-05-10T05:25:53;11.90;99.90
45807;DHT22;31507;51.494;7.518;2023-05-10T05:28:22;12.00;99.90
45807;DHT22;31507;51.494;7.518;2023-05-10T05:30:47;12.00;99.90
45807;DHT22;31507;51.494;7.518;2023-05-10T05:33:16;12.00;99.90
45807;DHT22;31507;51.494;7.518;2023-05-10T05:35:42;12.00;99.90
45807;DHT22;31507;51.494;7.518;2023-05-10T05:38:12;12.00;99.90
45807;DHT22;31507;51.494;7.518;2023-05-10T05:40:38;12.10;99.90
45807;DHT22;31507;51.494;7.518;2023-05-10T05:43:04;12.10;99.90
45807;DHT22;31507;51.494;7.518;2023-05-10T05:45:29;12.10;99.90
45807;DHT22;31507;51.494;7.518;2023-05-10T05:47:55;12.10;99.90
45807;DHT22;31507;51.494;7.518;2023-05-10T05:50:21;12.10;99.90
45807;DHT22;31507;51.494;7.518;2023-05-10T05:52:46;12.20;99.90
45807;DHT22;31507;51.494;7.518;2023-05-10T05:55:12;12.20;99.90
45807;DHT22;31507;51.494;7.518;2023-05-10T05:57:40;12.30;99.90
45807;DHT22;31507;51.494;7.518;2023-05-10T06:00:06;12.30;99.90
45807;DHT22;31507;51.494;7.518;2023-05-10T06:02:33;12.40;99.90
45807;DHT22;31507;51.494;7.518;2023-05-10T06:04:58;12.50;99.90
45807;DHT22;31507;51.494;7.518;2023-05-10T06:07:24;12.50;99.90
45807;DHT22;31507;51.494;7.518;2023-05-10T06:09:50;12.60;99.90
45807;DHT22;31507;51.494;7.518;2023-05-10T06:12:16;12.50;99.90
45807;DHT22;31507;51.494;7.518;2023-05-10T06:14:42;12.50;99.90
45807;DHT22;31507;51.494;7.518;2023-05-10T06:17:07;12.60;99.90
45807;DHT22;31507;51.494;7.518;2023-05-10T06:22:23;12.80;99.90
45807;DHT22;31507;51.494;7.518;2023-05-10T06:24:49;13.00;99.90
45807;DHT22;31507;51.494;7.518;2023-05-10T06:27:15;13.10;99.90
45807;DHT22;31507;51.494;7.518;2023-05-10T06:29:41;13.20;99.90
45807;DHT22;31507;51.494;7.518;2023-05-10T06:32:07;13.20;99.90
45807;DHT22;31507;51.494;7.518;2023-05-10T06:34:32;13.40;99.90
45807;DHT22;31507;51.494;7.518;2023-05-10T06:36:58;13.40;99.90
45807;DHT22;31507;51.494;7.518;2023-05-10T06:39:24;13.40;99.90
45807;DHT22;31507;51.494;7.518;2023-05-10T06:41:49;13.40;99.90
45807;DHT22;31507;51.494;7.518;2023-05-10T06:44:15;13.40;99.90
45807;DHT22;31507;51.494;7.518;2023-05-10T06:46:43;13.40;99.90
45807;DHT22;31507;51.494;7.518;2023-05-10T06:49:12;13.40;99.90
45807;DHT22;31507;51.494;7.518;2023-05-10T06:51:38;13.30;99.90
45807;DHT22;31507;51.494;7.518;2023-05-10T06:54:06;13.20;99.90
45807;DHT22;31507;51.494;7.518;2023-05-10T06:56:32;13.20;99.90
45807;DHT22;31507;51.494;7.518;2023-05-10T06:58:58;13.10;99.90
45807;DHT22;31507;51.494;7.518;2023-05-10T07:01:23;13.10;99.90
45807;DHT22;31507;51.494;7.518;2023-05-10T07:03:49;13.10;99.90
45807;DHT22;31507;51.494;7.518;2023-05-10T07:06:15;13.10;99.90
45807;DHT22;31507;51.494;7.518;2023-05-10T07:08:41;13.10;99.90
45807;DHT22;31507;51.494;7.518;2023-05-10T07:11:07;13.10;99.90
45807;DHT22;31507;51.494;7.518;2023-05-10T07:13:33;13.10;99.90
45807;DHT22;31507;51.494;7.518;2023-05-10T07:15:59;13.30;99.90
45807;DHT22;31507;51.494;7.518;2023-05-10T07:18:26;13.40;99.90
45807;DHT22;31507;51.494;7.518;2023-05-10T07:20:51;13.60;99.90
45807;DHT22;31507;51.494;7.518;2023-05-10T07:23:18;13.80;99.90
45807;DHT22;31507;51.494;7.518;2023-05-10T07:25:48;14.00;99.90
45807;DHT22;31507;51.494;7.518;2023-05-10T07:28:15;14.20;99.90
45807;DHT22;31507;51.494;7.518;2023-05-10T07:30:41;14.60;99.90
45807;DHT22;31507;51.494;7.518;2023-05-10T07:33:08;14.90;99.90
45807;DHT22;31507;51.494;7.518;2023-05-10T07:35:35;15.30;99.90
45807;DHT22;31507;51.494;7.518;2023-05-10T07:38:01;15.50;99.90
45807;DHT22;31507;51.494;7.518;2023-05-10T07:40:27;15.40;99.90
45807;DHT22;31507;51.494;7.518;2023-05-10T07:42:55;15.40;99.90
45807;DHT22;31507;51.494;7.518;2023-05-10T07:45:21;15.60;99.90
45807;DHT22;31507;51.494;7.518;2023-05-10T07:47:46;15.80;99.90
45807;DHT22;31507;51.494;7.518;2023-05-10T07:50:12;15.90;99.90
45807;DHT22;31507;51.494;7.518;2023-05-10T07:52:38;16.10;99.90
45807;DHT22;31507;51.494;7.518;2023-05-10T07:55:04;15.90;99.90
45807;DHT22;31507;51.494;7.518;2023-05-10T07:57:29;16.20;99.90
45807;DHT22;31507;51.494;7.518;2023-05-10T07:59:56;16.20;99.90
45807;DHT22;31507;51.494;7.518;2023-05-10T08:02:21;16.30;99.90
45807;DHT22;31507;51.494;7.518;2023-05-10T08:04:50;16.10;99.90
45807;DHT22;31507;51.494;7.518;2023-05-10T08:07:15;15.90;99.90
45807;DHT22;31507;51.494;7.518;2023-05-10T08:09:41;15.60;99.90
45807;DHT22;31507;51.494;7.518;2023-05-10T08:12:07;15.50;99.90
45807;DHT22;31507;51.494;7.518;2023-05-10T08:14:32;15.30;99.90
45807;DHT22;31507;51.494;7.518;2023-05-10T08:16:58;15.20;99.90
45807;DHT22;31507;51.494;7.518;2023-05-10T08:19:24;15.20;99.90
45807;DHT22;31507;51.494;7.518;2023-05-10T08:21:49;15.40;99.90
45807;DHT22;31507;51.494;7.518;2023-05-10T08:24:15;15.90;99.90
45807;DHT22;31507;51.494;7.518;2023-05-10T08:26:40;16.40;99.90
45807;DHT22;31507;51.494;7.518;2023-05-10T08:29:06;16.80;99.90
45807;DHT22;31507;51.494;7.518;2023-05-10T08:31:32;16.80;99.90
45807;DHT22;31507;51.494;7.518;2023-05-10T08:33:58;16.70;99.90
45807;DHT22;31507;51.494;7.518;2023-05-10T08:36:23;16.70;99.90
45807;DHT22;31507;51.494;7.518;2023-05-10T08:38:53;16.70;99.90
45807;DHT22;31507;51.494;7.518;2023-05-10T08:41:23;16.90;99.90
45807;DHT22;31507;51.494;7.518;2023-05-10T08:44:07;17.00;99.90
45807;DHT22;31507;51.494;7.518;2023-05-10T08:46:33;16.80;99.90
45807;DHT22;31507;51.494;7.518;2023-05-10T08:49:04;16.40;99.90
45807;DHT22;31507;51.494;7.518;2023-05-10T08:51:32;15.90;99.90
45807;DHT22;31507;51.494;7.518;2023-05-10T08:54:01;15.60;99.90
45807;DHT22;31507;51.494;7.518;2023-05-10T08:56:27;15.40;99.90
45807;DHT22;31507;51.494;7.518;2023-05-10T08:58:53;15.40;99.90
45807;DHT22;31507;51.494;7.518;2023-05-10T09:01:19;15.60;99.90
45807;DHT22;31507;51.494;7.518;2023-05-10T09:03:46;16.00;99.90
45807;DHT22;31507;51.494;7.518;2023-05-10T09:06:13;16.10;99.90
45807;DHT22;31507;51.494;7.518;2023-05-10T09:08:41;16.20;99.90
45807;DHT22;31507;51.494;7.518;2023-05-10T09:11:07;16.20;99.90
45807;DHT22;31507;51.494;7.518;2023-05-10T09:13:33;16.30;99.90
45807;DHT22;31507;51.494;7.518;2023-05-10T09:16:00;16.40;99.90
45807;DHT22;31507;51.494;7.518;2023-05-10T09:18:26;16.50;99.90
45807;DHT22;31507;51.494;7.518;2023-05-10T09:20:52;16.50;99.90
45807;DHT22;31507;51.494;7.518;2023-05-10T09:23:20;16.80;99.90
45807;DHT22;31507;51.494;7.518;2023-05-10T09:25:46;16.90;99.90
45807;DHT22;31507;51.494;7.518;2023-05-10T09:28:12;16.90;99.90
45807;DHT22;31507;51.494;7.518;2023-05-10T09:30:38;16.80;99.90
45807;DHT22;31507;51.494;7.518;2023-05-10T09:33:04;17.00;99.90
45807;DHT22;31507;51.494;7.518;2023-05-10T09:35:32;16.80;99.90
45807;DHT22;31507;51.494;7.518;2023-05-10T09:38:01;17.00;99.90
45807;DHT22;31507;51.494;7.518;2023-05-10T09:40:28;17.10;99.90
45807;DHT22;31507;51.494;7.518;2023-05-10T09:45:26;17.10;99.90
45807;DHT22;31507;51.494;7.518;2023-05-10T09:47:52;17.20;99.90
45807;DHT22;31507;51.494;7.518;2023-05-10T09:50:19;17.40;99.90
45807;DHT22;31507;51.494;7.518;2023-05-10T09:52:49;17.40;99.90
45807;DHT22;31507;51.494;7.518;2023-05-10T09:55:17;17.20;99.90
45807;DHT22;31507;51.494;7.518;2023-05-10T09:57:44;17.30;99.90
45807;DHT22;31507;51.494;7.518;2023-05-10T10:00:10;17.30;99.90
45807;DHT22;31507;51.494;7.518;2023-05-10T10:02:35;17.30;99.90
45807;DHT22;31507;51.494;7.518;2023-05-10T10:05:02;17.50;99.90
45807;DHT22;31507;51.494;7.518;2023-05-10T10:07:29;17.50;99.90
45807;DHT22;31507;51.494;7.518;2023-05-10T10:09:55;17.50;99.90
45807;DHT22;31507;51.494;7.518;2023-05-10T10:12:21;17.50;99.90
45807;DHT22;31507;51.494;7.518;2023-05-10T10:14:49;17.70;99.90
45807;DHT22;31507;51.494;7.518;2023-05-10T10:17:16;18.10;99.90
45807;DHT22;31507;51.494;7.518;2023-05-10T10:19:42;18.00;99.90
45807;DHT22;31507;51.494;7.518;2023-05-10T10:22:28;18.10;99.90
45807;DHT22;31507;51.494;7.518;2023-05-10T10:24:54;18.00;99.90
45807;DHT22;31507;51.494;7.518;2023-05-10T10:35:29;18.00;99.90
45807;DHT22;31507;51.494;7.518;2023-05-10T10:37:57;18.00;99.90
45807;DHT22;31507;51.494;7.518;2023-05-10T10:40:40;18.00;99.90
45807;DHT22;31507;51.494;7.518;2023-05-10T10:43:22;18.10;99.90
45807;DHT22;31507;51.494;7.518;2023-05-10T10:46:25;18.00;99.90
45807;DHT22;31507;51.494;7.518;2023-05-10T10:49:08;17.70;99.90
45807;DHT22;31507;51.494;7.518;2023-05-10T10:51:40;17.90;99.90
45807;DHT22;31507;51.494;7.518;2023-05-10T10:54:29;18.00;99.90
45807;DHT22;31507;51.494;7.518;2023-05-10T10:57:24;18.10;99.90
45807;DHT22;31507;51.494;7.518;2023-05-10T10:59:53;18.40;99.90
45807;DHT22;31507;51.494;7.518;2023-05-10T11:02:43;18.70;99.90
45807;DHT22;31507;51.494;7.518;2023-05-10T11:07:57;18.80;99.90
45807;DHT22;31507;51.494;7.518;2023-05-10T11:10:24;18.60;99.90
45807;DHT22;31507;51.494;7.518;2023-05-10T11:13:04;18.40;99.90
45807;DHT22;31507;51.494;7.518;2023-05-10T11:15:35;18.30;99.90
45807;DHT22;31507;51.494;7.518;2023-05-10T11:18:17;18.40;99.90
45807;DHT22;31507;51.494;7.518;2023-05-10T11:20:44;18.40;99.90
45807;DHT22;31507;51.494;7.518;2023-05-10T11:23:15;18.70;99.90
45807;DHT22;31507;51.494;7.518;2023-05-10T11:25:43;18.80;99.90
45807;DHT22;31507;51.494;7.518;2023-05-10T11:28:10;19.10;99.90
45807;DHT22;31507;51.494;7.518;2023-05-10T11:30:37;19.20;99.90
45807;DHT22;31507;51.494;7.518;2023-05-10T11:33:03;18.90;99.90
45807;DHT22;31507;51.494;7.518;2023-05-10T11:35:30;18.90;99.90
45807;DHT22;31507;51.494;7.518;2023-05-10T11:37:55;18.80;99.90
45807;DHT22;31507;51.494;7.518;2023-05-10T11:40:21;18.60;99.90
45807;DHT22;31507;51.494;7.518;2023-05-10T11:42:50;18.10;99.90
45807;DHT22;31507;51.494;7.518;2023-05-10T11:45:16;17.60;99.90
45807;DHT22;31507;51.494;7.518;2023-05-10T11:47:41;17.90;99.90
45807;DHT22;31507;51.494;7.518;2023-05-10T11:50:10;18.10;99.90
45807;DHT22;31507;51.494;7.518;2023-05-10T11:52:36;18.20;99.90
45807;DHT22;31507;51.494;7.518;2023-05-10T11:55:05;18.00;99.90
45807;DHT22;31507;51.494;7.518;2023-05-10T11:57:31;17.90;99.90
45807;DHT22;31507;51.494;7.518;2023-05-10T11:59:57;17.80;99.90
45807;DHT22;31507;51.494;7.518;2023-05-10T12:02:23;17.80;99.90
45807;DHT22;31507;51.494;7.518;2023-05-10T12:04:50;17.70;99.90
45807;DHT22;31507;51.494;7.518;2023-05-10T12:07:16;17.50;99.90
45807;DHT22;31507;51.494;7.518;2023-05-10T12:10:01;17.30;99.90
45807;DHT22;31507;51.494;7.518;2023-05-10T12:12:27;17.20;99.90
45807;DHT22;31507;51.494;7.518;2023-05-10T12:14:52;17.00;99.90
45807;DHT22;31507;51.494;7.518;2023-05-10T12:17:18;16.80;99.90
45807;DHT22;31507;51.494;7.518;2023-05-10T12:19:44;16.70;99.90
45807;DHT22;31507;51.494;7.518;2023-05-10T12:22:09;16.80;99.90
45807;DHT22;31507;51.494;7.518;2023-05-10T12:24:36;17.00;99.90
45807;DHT22;31507;51.494;7.518;2023-05-10T12:27:08;17.20;99.90
45807;DHT22;31507;51.494;7.518;2023-05-10T12:29:34;17.40;99.90
45807;DHT22;31507;51.494;7.518;2023-05-10T12:31:59;17.60;99.90
45807;DHT22;31507;51.494;7.518;2023-05-10T12:34:35;17.80;99.90
45807;DHT22;31507;51.494;7.518;2023-05-10T12:37:04;17.90;99.90
45807;DHT22;31507;51.494;7.518;2023-05-10T12:42:05;18.10;99.90
45807;DHT22;31507;51.494;7.518;2023-05-10T12:44:31;18.20;99.90
45807;DHT22;31507;51.494;7.518;2023-05-10T12:46:57;17.80;99.90
45807;DHT22;31507;51.494;7.518;2023-05-10T12:49:22;17.70;99.90
45807;DHT22;31507;51.494;7.518;2023-05-10T12:51:48;17.50;99.90
45807;DHT22;31507;51.494;7.518;2023-05-10T12:54:13;17.40;99.90
45807;DHT22;31507;51.494;7.518;2023-05-10T12:56:39;17.50;99.90
45807;DHT22;31507;51.494;7.518;2023-05-10T12:59:06;17.50;99.90
45807;DHT22;31507;51.494;7.518;2023-05-10T13:01:31;17.40;99.90
45807;DHT22;31507;51.494;7.518;2023-05-10T13:03:57;17.20;99.90
45807;DHT22;31507;51.494;7.518;2023-05-10T13:06:22;17.20;99.90
45807;DHT22;31507;51.494;7.518;2023-05-10T13:08:48;17.20;99.90
45807;DHT22;31507;51.494;7.518;2023-05-10T13:11:14;17.50;99.90
45807;DHT22;31507;51.494;7.518;2023-05-10T13:13:42;17.70;99.90
45807;DHT22;31507;51.494;7.518;2023-05-10T13:16:07;18.10;99.90
45807;DHT22;31507;51.494;7.518;2023-05-10T13:18:33;18.60;99.90
45807;DHT22;31507;51.494;7.518;2023-05-10T13:20:59;19.00;99.90
45807;DHT22;31507;51.494;7.518;2023-05-10T13:23:24;18.90;99.90
45807;DHT22;31507;51.494;7.518;2023-05-10T13:25:50;19.10;99.90
45807;DHT22;31507;51.494;7.518;2023-05-10T13:28:16;19.00;99.90
45807;DHT22;31507;51.494;7.518;2023-05-10T13:30:41;19.20;99.90
45807;DHT22;31507;51.494;7.518;2023-05-10T13:33:07;19.30;99.90
45807;DHT22;31507;51.494;7.518;2023-05-10T13:35:33;19.30;99.90
45807;DHT22;31507;51.494;7.518;2023-05-10T13:37:58;19.30;99.90
45807;DHT22;31507;51.494;7.518;2023-05-10T13:40:24;19.20;99.90
45807;DHT22;31507;51.494;7.518;2023-05-10T13:42:49;18.90;99.90
45807;DHT22;31507;51.494;7.518;2023-05-10T13:45:15;18.70;99.90
45807;DHT22;31507;51.494;7.518;2023-05-10T13:47:41;18.80;99.90
45807;DHT22;31507;51.494;7.518;2023-05-10T13:50:07;19.00;99.90
45807;DHT22;31507;51.494;7.518;2023-05-10T13:52:32;19.30;99.90
45807;DHT22;31507;51.494;7.518;2023-05-10T13:54:58;19.30;99.90
45807;DHT22;31507;51.494;7.518;2023-05-10T13:57:24;19.20;99.90
45807;DHT22;31507;51.494;7.518;2023-05-10T13:59:50;19.40;99.90
45807;DHT22;31507;51.494;7.518;2023-05-10T14:02:16;19.10;99.90
45807;DHT22;31507;51.494;7.518;2023-05-10T14:04:41;18.90;99.90
45807;DHT22;31507;51.494;7.518;2023-05-10T14:07:07;18.90;99.90
45807;DHT22;31507;51.494;7.518;2023-05-10T14:09:32;18.70;99.90
45807;DHT22;31507;51.494;7.518;2023-05-10T14:11:58;18.50;99.90
45807;DHT22;31507;51.494;7.518;2023-05-10T14:14:24;18.40;99.90
45807;DHT22;31507;51.494;7.518;2023-05-10T14:16:50;18.60;99.90
45807;DHT22;31507;51.494;7.518;2023-05-10T14:19:15;18.70;99.90
45807;DHT22;31507;51.494;7.518;2023-05-10T14:21:41;18.50;99.90
45807;DHT22;31507;51.494;7.518;2023-05-10T14:24:06;18.30;99.90
45807;DHT22;31507;51.494;7.518;2023-05-10T14:26:32;18.30;99.90
45807;DHT22;31507;51.494;7.518;2023-05-10T14:28:59;18.50;99.90
45807;DHT22;31507;51.494;7.518;2023-05-10T14:31:25;19.00;99.90
45807;DHT22;31507;51.494;7.518;2023-05-10T14:33:51;19.10;99.90
45807;DHT22;31507;51.494;7.518;2023-05-10T14:36:17;19.50;99.90
45807;DHT22;31507;51.494;7.518;2023-05-10T14:38:43;19.60;99.90
45807;DHT22;31507;51.494;7.518;2023-05-10T14:41:08;19.80;99.90
45807;DHT22;31507;51.494;7.518;2023-05-10T14:43:34;20.10;99.90
45807;DHT22;31507;51.494;7.518;2023-05-10T14:46:00;20.30;99.90
45807;DHT22;31507;51.494;7.518;2023-05-10T14:48:26;20.10;99.90
45807;DHT22;31507;51.494;7.518;2023-05-10T14:50:51;19.90;99.90
45807;DHT22;31507;51.494;7.518;2023-05-10T14:53:18;19.40;99.90
45807;DHT22;31507;51.494;7.518;2023-05-10T14:55:43;19.20;99.90
45807;DHT22;31507;51.494;7.518;2023-05-10T14:58:09;18.90;99.90
45807;DHT22;31507;51.494;7.518;2023-05-10T15:00:34;18.80;99.90
45807;DHT22;31507;51.494;7.518;2023-05-10T15:03:01;19.10;99.90
45807;DHT22;31507;51.494;7.518;2023-05-10T15:05:26;19.20;99.90
45807;DHT22;31507;51.494;7.518;2023-05-10T15:07:52;19.10;99.90
45807;DHT22;31507;51.494;7.518;2023-05-10T15:10:18;19.30;99.90
45807;DHT22;31507;51.494;7.518;2023-05-10T15:12:43;19.60;99.90
45807;DHT22;31507;51.494;7.518;2023-05-10T15:15:09;19.60;98.80
45807;DHT22;31507;51.494;7.518;2023-05-10T15:17:35;19.70;98.00
45807;DHT22;31507;51.494;7.518;2023-05-10T15:20:01;19.60;98.00
45807;DHT22;31507;51.494;7.518;2023-05-10T15:22:30;19.50;98.10
45807;DHT22;31507;51.494;7.518;2023-05-10T15:24:57;19.70;95.90
45807;DHT22;31507;51.494;7.518;2023-05-10T15:27:24;19.80;96.30
45807;DHT22;31507;51.494;7.518;2023-05-10T15:29:50;19.90;96.10
45807;DHT22;31507;51.494;7.518;2023-05-10T15:32:15;20.30;96.10
45807;DHT22;31507;51.494;7.518;2023-05-10T15:34:41;20.70;94.60
45807;DHT22;31507;51.494;7.518;2023-05-10T15:37:07;21.00;92.90
45807;DHT22;31507;51.494;7.518;2023-05-10T15:39:32;21.20;91.60
45807;DHT22;31507;51.494;7.518;2023-05-10T15:41:58;21.50;88.50
45807;DHT22;31507;51.494;7.518;2023-05-10T15:44:24;21.40;90.00
45807;DHT22;31507;51.494;7.518;2023-05-10T15:46:49;21.00;90.30
45807;DHT22;31507;51.494;7.518;2023-05-10T15:49:15;20.40;90.50
45807;DHT22;31507;51.494;7.518;2023-05-10T15:51:41;20.10;92.30
45807;DHT22;31507;51.494;7.518;2023-05-10T15:54:07;19.80;92.60
45807;DHT22;31507;51.494;7.518;2023-05-10T15:56:33;19.60;94.10
45807;DHT22;31507;51.494;7.518;2023-05-10T15:58:59;19.40;95.40
45807;DHT22;31507;51.494;7.518;2023-05-10T16:01:25;19.40;96.20
45807;DHT22;31507;51.494;7.518;2023-05-10T16:03:50;19.40;96.80
45807;DHT22;31507;51.494;7.518;2023-05-10T16:06:16;19.20;96.80